createdAt,value
2023-05-15T00:02:16.988Z,6.70
2023-05-15T00:06:39.225Z,6.55
2023-05-15T00:11:02.291Z,7.97
2023-05-15T00:15:24.548Z,6.40
2023-05-15T00:19:46.478Z,6.60
2023-05-15T00:24:08.597Z,6.63
2023-05-15T00:28:30.659Z,7.13
2023-05-15T00:32:52.661Z,5.22
2023-05-15T00:37:14.968Z,5.78
2023-05-15T00:41:38.041Z,6.25
2023-05-15T00:46:01.119Z,6.95
2023-05-15T00:50:23.882Z,6.85
2023-05-15T00:54:45.878Z,6.53
2023-05-15T00:59:08.424Z,7.93
2023-05-15T01:03:31.525Z,9.52
2023-05-15T01:08:32.660Z,10.10
2023-05-15T01:12:55.989Z,8.50
2023-05-15T01:17:18.136Z,9.73
2023-05-15T01:22:15.899Z,9.85
2023-05-15T01:27:34.598Z,9.05
2023-05-15T01:32:17.837Z,9.52
2023-05-15T01:36:49.468Z,9.25
2023-05-15T01:41:46.117Z,8.57
2023-05-15T01:46:08.329Z,10.02
2023-05-15T01:50:32.802Z,9.32
2023-05-15T01:54:55.956Z,9.27
2023-05-15T01:59:20.633Z,10.57
2023-05-15T02:03:43.777Z,11.07
2023-05-15T02:08:07.817Z,9.27
2023-05-15T02:12:30.562Z,9.02
2023-05-15T02:16:52.877Z,8.98
2023-05-15T02:21:16.020Z,7.65
2023-05-15T02:26:13.731Z,8.90
2023-05-15T02:30:40.843Z,8.48
2023-05-15T02:35:40.494Z,8.45
2023-05-15T02:40:07.740Z,8.75
2023-05-15T02:44:31.021Z,8.07
2023-05-15T02:48:54.153Z,9.68
2023-05-15T02:53:16.369Z,9.43
2023-05-15T02:57:38.498Z,9.40
2023-05-15T03:02:00.620Z,7.95
2023-05-15T03:06:22.634Z,9.18
2023-05-15T03:10:44.671Z,8.65
2023-05-15T03:15:07.704Z,8.57
2023-05-15T03:19:29.577Z,8.80
2023-05-15T03:23:51.355Z,9.15
2023-05-15T03:28:13.562Z,9.98
2023-05-15T03:32:35.727Z,9.70
2023-05-15T03:36:58.376Z,9.30
2023-05-15T03:41:21.518Z,13.40
2023-05-15T03:45:43.304Z,12.52
2023-05-15T03:50:06.738Z,11.73
2023-05-15T03:54:28.973Z,12.80
2023-05-15T03:58:50.694Z,13.77
2023-05-15T04:03:13.087Z,14.05
2023-05-15T04:07:37.012Z,27.38
2023-05-15T04:11:58.757Z,14.27
2023-05-15T04:16:20.901Z,16.27
2023-05-15T04:20:42.921Z,14.15
2023-05-15T04:25:05.179Z,17.25
2023-05-15T04:29:26.872Z,16.23
2023-05-15T04:33:49.340Z,16.35
2023-05-15T04:38:13.374Z,15.65
2023-05-15T04:42:38.324Z,10.93
2023-05-15T04:47:01.316Z,12.52
2023-05-15T04:51:23.468Z,11.80
2023-05-15T04:55:45.449Z,9.30
2023-05-15T05:00:12.433Z,9.65
2023-05-15T05:04:34.798Z,9.63
2023-05-15T05:08:56.736Z,7.07
2023-05-15T05:13:18.907Z,5.85
2023-05-15T05:17:41.112Z,5.35
2023-05-15T05:22:05.604Z,5.20
2023-05-15T05:26:28.118Z,5.30
2023-05-15T05:30:50.523Z,5.00
2023-05-15T05:35:12.618Z,4.63
2023-05-15T05:39:34.959Z,4.20
2023-05-15T05:43:56.737Z,5.78
2023-05-15T05:48:18.796Z,5.28
2023-05-15T05:52:40.773Z,4.97
2023-05-15T05:57:03.054Z,5.13
2023-05-15T06:01:25.215Z,5.03
2023-05-15T06:05:47.696Z,5.78
2023-05-15T06:10:10.180Z,4.97
2023-05-15T06:14:32.406Z,5.45
2023-05-15T06:18:54.537Z,4.97
2023-05-15T06:23:16.363Z,5.22
2023-05-15T06:27:38.529Z,4.75
2023-05-15T06:32:00.694Z,4.97
2023-05-15T06:36:22.716Z,6.20
2023-05-15T06:40:44.787Z,5.82
2023-05-15T06:45:07.493Z,5.28
2023-05-15T06:49:29.419Z,5.28
2023-05-15T06:53:51.365Z,5.20
2023-05-15T06:58:13.208Z,5.45
2023-05-15T07:02:35.334Z,4.90
2023-05-15T07:06:58.089Z,4.88
2023-05-15T07:11:19.943Z,4.90
2023-05-15T07:15:42.142Z,5.40
2023-05-15T07:20:06.263Z,4.50
2023-05-15T07:24:28.277Z,4.35
2023-05-15T07:28:50.416Z,4.63
2023-05-15T07:33:12.578Z,4.55
2023-05-15T07:37:34.608Z,4.38
2023-05-15T07:41:56.689Z,5.03
2023-05-15T07:46:18.928Z,4.40
2023-05-15T07:50:41.048Z,4.60
2023-05-15T07:55:03.857Z,4.25
2023-05-15T07:59:26.036Z,3.70
2023-05-15T08:03:48.259Z,4.00
2023-05-15T08:08:10.341Z,4.00
2023-05-15T08:12:32.275Z,3.70
2023-05-15T08:16:54.350Z,3.55
2023-05-15T08:21:16.515Z,4.00
2023-05-15T08:25:38.483Z,4.00
2023-05-15T08:30:00.637Z,3.85
2023-05-15T08:34:22.834Z,4.40
2023-05-15T08:38:44.723Z,4.45
2023-05-15T08:43:18.426Z,4.93
2023-05-15T08:47:43.011Z,5.47
2023-05-15T08:52:06.103Z,5.45
2023-05-15T08:56:28.657Z,5.95
2023-05-15T09:00:51.256Z,5.95
2023-05-15T09:05:13.396Z,5.55
2023-05-15T09:09:36.155Z,5.03
2023-05-15T09:14:00.072Z,5.32
2023-05-15T09:18:22.459Z,6.32
2023-05-15T09:22:44.626Z,5.47
2023-05-15T09:27:11.508Z,5.82
2023-05-15T09:31:34.277Z,5.32
2023-05-15T09:35:56.599Z,5.95
2023-05-15T09:40:19.664Z,6.50
2023-05-15T09:44:43.797Z,4.35
2023-05-15T09:49:06.046Z,4.10
2023-05-15T09:53:29.315Z,4.55
2023-05-15T09:58:18.103Z,5.38
2023-05-15T10:02:41.757Z,5.05
2023-05-15T10:07:03.730Z,5.30
2023-05-15T10:11:27.429Z,6.00
2023-05-15T10:15:49.992Z,5.95
2023-05-15T10:20:13.756Z,6.07
2023-05-15T10:24:36.449Z,5.70
2023-05-15T10:28:58.641Z,5.40
2023-05-15T10:33:21.838Z,5.28
2023-05-15T10:37:47.571Z,5.18
2023-05-15T10:42:10.419Z,5.93
2023-05-15T10:46:35.782Z,5.10
2023-05-15T10:51:01.699Z,5.10
2023-05-15T10:55:24.237Z,5.65
2023-05-15T10:59:46.179Z,5.95
2023-05-15T11:04:16.486Z,4.78
2023-05-15T11:08:41.621Z,4.53
2023-05-15T11:13:04.677Z,5.32
2023-05-15T11:17:27.054Z,4.65
2023-05-15T11:22:01.619Z,3.55
2023-05-15T11:26:34.069Z,4.00
2023-05-15T11:31:06.208Z,4.88
2023-05-15T11:35:58.266Z,3.70
2023-05-15T11:40:32.266Z,4.38
2023-05-15T11:44:54.256Z,3.65
2023-05-15T11:49:19.557Z,3.47
2023-05-15T11:53:43.196Z,2.70
2023-05-15T11:58:06.873Z,2.55
2023-05-15T12:02:29.088Z,2.75
2023-05-15T12:06:51.780Z,2.70
2023-05-15T12:11:14.060Z,3.22
2023-05-15T12:15:43.811Z,3.13
2023-05-15T12:20:17.212Z,3.50
2023-05-15T12:24:40.044Z,4.05
2023-05-15T12:29:02.196Z,3.72
2023-05-15T12:33:25.064Z,4.07
2023-05-15T12:37:47.203Z,3.85
2023-05-15T12:42:09.361Z,3.83
2023-05-15T12:46:32.726Z,4.40
2023-05-15T12:50:55.026Z,4.40
2023-05-15T12:55:24.918Z,4.20
2023-05-15T12:59:47.292Z,4.70
2023-05-15T13:04:10.065Z,4.63
2023-05-15T13:08:32.412Z,4.32
2023-05-15T13:12:56.005Z,4.07
2023-05-15T13:17:18.110Z,4.43
2023-05-15T13:21:40.333Z,4.53
2023-05-15T13:26:02.395Z,3.53
2023-05-15T13:30:24.675Z,4.15
2023-05-15T13:34:46.915Z,3.92
2023-05-15T13:39:09.602Z,3.72
2023-05-15T13:43:31.527Z,4.70
2023-05-15T13:47:55.327Z,3.97
2023-05-15T13:52:17.382Z,4.25
2023-05-15T13:56:39.639Z,5.13
2023-05-15T14:01:07.104Z,4.88
2023-05-15T14:05:29.250Z,6.20
2023-05-15T14:09:52.075Z,5.63
2023-05-15T14:14:14.233Z,5.70
2023-05-15T14:18:36.546Z,5.10
2023-05-15T14:22:58.514Z,5.18
2023-05-15T14:27:21.055Z,4.40
2023-05-15T14:31:43.457Z,4.75
2023-05-15T14:36:05.956Z,5.30
2023-05-15T14:40:28.322Z,4.93
2023-05-15T14:44:50.985Z,4.88
2023-05-15T14:49:12.980Z,4.18
2023-05-15T14:53:34.937Z,5.03
2023-05-15T14:57:58.744Z,5.10
2023-05-15T15:02:20.875Z,4.68
2023-05-15T15:06:44.296Z,4.40
2023-05-15T15:11:07.134Z,4.40
2023-05-15T15:15:33.796Z,4.53
2023-05-15T15:19:55.918Z,4.68
2023-05-15T15:24:18.298Z,3.97
2023-05-15T15:28:40.563Z,4.90
2023-05-15T15:33:02.741Z,4.93
2023-05-15T15:37:25.295Z,3.83
2023-05-15T15:41:47.616Z,4.15
2023-05-15T15:46:09.739Z,5.22
2023-05-15T15:50:31.923Z,3.90
2023-05-15T15:54:54.345Z,3.97
2023-05-15T15:59:16.785Z,5.07
2023-05-15T16:03:38.818Z,3.72
2023-05-15T16:08:01.084Z,4.40
2023-05-15T16:12:23.419Z,4.65
2023-05-15T16:16:45.628Z,4.05
2023-05-15T16:21:07.522Z,4.25
2023-05-15T16:25:29.617Z,5.15
2023-05-15T16:29:51.838Z,4.25
2023-05-15T16:34:14.272Z,4.05
2023-05-15T16:38:36.308Z,3.90
2023-05-15T16:42:58.208Z,3.53
2023-05-15T16:47:20.021Z,3.28
2023-05-15T16:51:42.208Z,3.58
2023-05-15T16:56:04.658Z,4.22
2023-05-15T17:00:27.448Z,3.42
2023-05-15T17:04:49.885Z,3.60
2023-05-15T17:09:12.087Z,3.75
2023-05-15T17:13:34.079Z,3.72
2023-05-15T17:17:56.061Z,3.55
2023-05-15T17:22:18.079Z,3.75
2023-05-15T17:26:40.350Z,4.70
2023-05-15T17:31:10.459Z,4.65
2023-05-15T17:35:33.385Z,4.18
2023-05-15T17:39:56.174Z,4.35
2023-05-15T17:44:18.457Z,4.80
2023-05-15T17:48:40.623Z,4.55
2023-05-15T17:53:02.436Z,4.40
2023-05-15T17:57:25.129Z,4.35
2023-05-15T18:01:47.509Z,5.00
2023-05-15T18:06:11.053Z,4.85
2023-05-15T18:10:33.082Z,4.25
2023-05-15T18:14:55.623Z,5.10
2023-05-15T18:19:18.315Z,4.30
2023-05-15T18:23:40.254Z,4.53
2023-05-15T18:28:03.949Z,4.38
2023-05-15T18:32:26.118Z,4.10
2023-05-15T18:36:52.092Z,4.35
2023-05-15T18:41:14.078Z,4.53
2023-05-15T18:45:36.118Z,3.83
2023-05-15T18:49:57.935Z,3.97
2023-05-15T18:54:20.138Z,4.40
2023-05-15T18:58:43.518Z,4.68
2023-05-15T19:03:06.348Z,4.20
2023-05-15T19:07:28.941Z,4.68
2023-05-15T19:11:52.728Z,4.20
2023-05-15T19:16:14.906Z,4.20
2023-05-15T19:20:36.814Z,4.72
2023-05-15T19:24:59.154Z,5.82
2023-05-15T19:29:21.170Z,4.93
2023-05-15T19:33:43.889Z,4.45
2023-05-15T19:38:05.949Z,4.03
2023-05-15T19:42:28.148Z,4.00
2023-05-15T19:46:51.028Z,4.03
2023-05-15T19:51:13.483Z,4.28
2023-05-15T19:55:36.166Z,4.43
2023-05-15T19:59:58.293Z,4.90
2023-05-15T20:04:21.153Z,4.60
2023-05-15T20:08:43.500Z,4.05
2023-05-15T20:13:06.180Z,4.75
2023-05-15T20:17:28.581Z,6.82
2023-05-15T20:21:50.977Z,5.03
2023-05-15T20:26:12.749Z,5.82
2023-05-15T20:30:34.800Z,4.82
2023-05-15T20:34:57.015Z,6.03
2023-05-15T20:39:22.273Z,5.70
2023-05-15T20:43:44.453Z,5.20
2023-05-15T20:48:08.847Z,6.45
2023-05-15T20:52:31.702Z,5.85
2023-05-15T20:56:53.908Z,5.72
2023-05-15T21:01:16.322Z,6.00
2023-05-15T21:05:39.060Z,5.88
2023-05-15T21:10:04.092Z,6.78
2023-05-15T21:14:27.597Z,6.50
2023-05-15T21:18:49.801Z,6.63
2023-05-15T21:23:12.010Z,6.28
2023-05-15T21:27:34.263Z,7.35
2023-05-15T21:31:56.328Z,6.78
2023-05-15T21:36:18.416Z,7.00
2023-05-15T21:40:41.072Z,6.95
2023-05-15T21:45:04.811Z,6.13
2023-05-15T21:49:27.998Z,6.93
2023-05-15T21:53:50.032Z,6.18
2023-05-15T21:58:11.936Z,6.60
2023-05-15T22:02:34.356Z,7.25
2023-05-15T22:06:56.289Z,6.78
2023-05-15T22:11:18.517Z,6.97
2023-05-15T22:15:40.658Z,6.70
2023-05-15T22:20:13.591Z,7.55
2023-05-15T22:24:35.876Z,7.32
2023-05-15T22:28:57.916Z,7.85
2023-05-15T22:33:24.654Z,7.80
2023-05-15T22:37:51.771Z,7.93
2023-05-15T22:42:14.189Z,7.90
2023-05-15T22:46:36.063Z,8.02
2023-05-15T22:50:58.098Z,8.55
2023-05-15T22:55:20.170Z,8.35
2023-05-15T22:59:42.451Z,9.77
2023-05-15T23:04:06.061Z,9.23
2023-05-15T23:08:41.260Z,9.43
2023-05-15T23:13:04.957Z,10.07
2023-05-15T23:17:37.538Z,9.15
2023-05-15T23:21:59.530Z,9.40
2023-05-15T23:26:33.542Z,8.98
2023-05-15T23:31:00.077Z,9.75
2023-05-15T23:35:23.349Z,10.00
2023-05-15T23:39:45.380Z,10.57
2023-05-15T23:44:11.057Z,11.18
2023-05-15T23:48:33.917Z,11.80
2023-05-15T23:52:55.901Z,11.75
2023-05-15T23:57:18.125Z,10.85
